createdAt,value
2022-11-13T00:01:02.552Z,7.03
2022-11-13T00:04:21.544Z,6.77
2022-11-13T00:07:56.570Z,5.60
2022-11-13T00:11:27.576Z,7.53
2022-11-13T00:14:46.617Z,6.60
2022-11-13T00:18:05.563Z,9.00
2022-11-13T00:21:36.585Z,6.53
2022-11-13T00:25:08.605Z,6.83
2022-11-13T00:28:39.631Z,5.93
2022-11-13T00:31:57.633Z,7.90
2022-11-13T00:35:15.644Z,7.65
2022-11-13T00:38:34.630Z,5.20
2022-11-13T00:42:07.633Z,6.67
2022-11-13T00:45:26.717Z,7.90
2022-11-13T00:48:57.669Z,6.43
2022-11-13T00:52:17.700Z,6.20
2022-11-13T00:55:38.691Z,6.60
2022-11-13T00:59:11.680Z,11.75
2022-11-13T01:02:30.734Z,6.00
2022-11-13T01:06:04.731Z,7.00
2022-11-13T01:09:23.743Z,6.70
2022-11-13T01:12:41.772Z,8.20
2022-11-13T01:16:14.785Z,6.60
2022-11-13T01:19:33.760Z,8.00
2022-11-13T01:22:52.801Z,7.03
2022-11-13T01:26:28.785Z,6.63
2022-11-13T01:29:47.812Z,6.37
2022-11-13T01:33:21.829Z,7.20
2022-11-13T01:36:52.843Z,9.50
2022-11-13T01:40:10.850Z,8.45
2022-11-13T01:43:48.837Z,13.10
2022-11-13T01:47:19.875Z,7.87
2022-11-13T01:50:52.896Z,6.40
2022-11-13T01:54:23.876Z,7.40
2022-11-13T01:57:54.853Z,9.00
2022-11-13T02:01:25.969Z,8.70
2022-11-13T02:04:56.933Z,8.77
2022-11-13T02:08:29.321Z,9.23
2022-11-13T02:11:59.917Z,6.70
2022-11-13T02:15:35.959Z,7.27
2022-11-13T02:19:06.959Z,6.80
2022-11-13T02:22:38.947Z,6.73
2022-11-13T02:26:11.989Z,7.43
2022-11-13T02:29:45.004Z,7.90
2022-11-13T02:33:15.991Z,9.00
2022-11-13T02:36:47.025Z,8.17
2022-11-13T02:40:06.014Z,6.83
2022-11-13T02:43:38.021Z,9.50
2022-11-13T02:46:57.051Z,6.37
2022-11-13T02:50:15.021Z,8.00
2022-11-13T02:53:46.051Z,6.90
2022-11-13T02:57:04.078Z,6.97
2022-11-13T03:00:37.117Z,7.87
2022-11-13T03:04:10.100Z,6.80
2022-11-13T03:07:29.118Z,8.20
2022-11-13T03:10:59.118Z,6.17
2022-11-13T03:14:30.098Z,6.20
2022-11-13T03:18:03.144Z,7.15
2022-11-13T03:21:34.168Z,6.47
2022-11-13T03:24:53.176Z,7.37
2022-11-13T03:28:12.178Z,7.40
2022-11-13T03:31:34.173Z,6.90
2022-11-13T03:35:09.184Z,7.57
2022-11-13T03:38:27.627Z,7.00
2022-11-13T03:41:45.331Z,6.77
2022-11-13T03:45:04.228Z,6.93
2022-11-13T03:48:38.288Z,8.40
2022-11-13T03:52:09.277Z,5.70
2022-11-13T03:55:29.282Z,6.73
2022-11-13T03:58:49.796Z,7.10
2022-11-13T04:02:08.405Z,6.93
2022-11-13T04:05:27.293Z,7.80
2022-11-13T04:08:59.313Z,7.47
2022-11-13T04:12:22.396Z,9.97
2022-11-13T04:15:40.341Z,8.05
2022-11-13T04:18:58.303Z,8.80
2022-11-13T04:22:16.358Z,5.70
2022-11-13T04:25:49.377Z,7.07
2022-11-13T04:29:09.409Z,7.07
2022-11-13T04:32:28.358Z,8.33
2022-11-13T04:35:46.405Z,7.77
2022-11-13T04:39:05.391Z,6.40
2022-11-13T04:42:43.218Z,5.60
2022-11-13T04:46:17.416Z,6.53
2022-11-13T04:49:39.417Z,6.27
2022-11-13T04:53:02.451Z,6.57
2022-11-13T04:56:21.459Z,7.25
2022-11-13T04:59:54.427Z,6.67
2022-11-13T05:03:13.486Z,6.47
2022-11-13T05:06:32.446Z,6.83
2022-11-13T05:09:51.474Z,6.83
2022-11-13T05:13:10.493Z,5.53
2022-11-13T05:16:43.513Z,6.30
2022-11-13T05:20:02.553Z,5.53
2022-11-13T05:23:23.536Z,7.37
2022-11-13T05:26:57.544Z,5.60
2022-11-13T05:30:28.626Z,5.57
2022-11-13T05:34:05.914Z,7.23
2022-11-13T05:37:22.575Z,5.93
2022-11-13T05:40:53.596Z,6.00
2022-11-13T05:44:24.787Z,7.73
2022-11-13T05:47:55.678Z,5.97
2022-11-13T05:51:27.589Z,7.07
2022-11-13T05:54:46.676Z,6.65
2022-11-13T05:58:05.630Z,8.95
2022-11-13T06:01:36.678Z,5.83
2022-11-13T06:04:56.699Z,5.90
2022-11-13T06:08:28.898Z,5.23
2022-11-13T06:11:50.668Z,6.53
2022-11-13T06:15:11.674Z,7.17
2022-11-13T06:18:45.741Z,8.37
2022-11-13T06:22:04.719Z,6.00
2022-11-13T06:25:39.779Z,6.10
2022-11-13T06:29:09.768Z,10.00
2022-11-13T06:32:28.749Z,7.00
2022-11-13T06:35:49.830Z,6.47
2022-11-13T06:39:07.844Z,7.20
2022-11-13T06:42:42.767Z,6.77
2022-11-13T06:46:01.779Z,6.33
2022-11-13T06:49:20.799Z,6.00
2022-11-13T06:52:38.787Z,5.90
2022-11-13T06:56:09.796Z,8.37
2022-11-13T06:59:41.846Z,6.00
2022-11-13T07:03:13.811Z,6.93
2022-11-13T07:06:47.962Z,7.13
2022-11-13T07:10:06.912Z,5.37
2022-11-13T07:13:25.924Z,7.00
2022-11-13T07:17:09.113Z,7.30
2022-11-13T07:20:28.893Z,6.23
2022-11-13T07:23:59.943Z,6.03
2022-11-13T07:27:17.945Z,5.63
2022-11-13T07:30:48.957Z,6.00
2022-11-13T07:34:21.920Z,6.83
2022-11-13T07:37:39.945Z,5.53
2022-11-13T07:40:58.931Z,6.00
2022-11-13T07:44:40.100Z,5.90
2022-11-13T07:47:47.947Z,5.17
2022-11-13T07:51:20.967Z,4.80
2022-11-13T07:54:40.055Z,6.45
2022-11-13T07:57:58.994Z,6.33
2022-11-13T08:01:30.062Z,5.90
2022-11-13T08:04:48.017Z,6.17
2022-11-13T08:08:24.035Z,6.40
2022-11-13T08:11:44.094Z,5.90
2022-11-13T08:15:09.376Z,5.97
2022-11-13T08:18:40.143Z,6.77
2022-11-13T08:21:59.081Z,6.00
2022-11-13T08:25:32.083Z,7.03
2022-11-13T08:29:03.169Z,6.20
2022-11-13T08:32:22.082Z,5.67
2022-11-13T08:35:44.130Z,7.70
2022-11-13T08:39:03.158Z,8.27
2022-11-13T08:42:39.129Z,6.43
2022-11-13T08:46:13.164Z,7.03
2022-11-13T08:49:47.173Z,7.83
2022-11-13T08:53:19.242Z,6.73
2022-11-13T08:56:38.270Z,8.57
2022-11-13T09:00:11.226Z,7.35
2022-11-13T09:03:42.324Z,6.97
2022-11-13T09:07:01.290Z,7.00
2022-11-13T09:10:24.287Z,7.77
2022-11-13T09:13:45.830Z,8.07
2022-11-13T09:17:19.275Z,8.43
2022-11-13T09:20:53.247Z,7.33
2022-11-13T09:24:26.256Z,7.20
2022-11-13T09:27:45.284Z,8.73
2022-11-13T09:31:04.253Z,6.53
2022-11-13T09:34:40.471Z,7.40
2022-11-13T09:37:59.305Z,7.35
2022-11-13T09:41:30.329Z,12.40
2022-11-13T09:45:01.312Z,6.57
2022-11-13T09:48:34.379Z,6.63
2022-11-13T09:52:06.907Z,6.20
2022-11-13T09:55:37.365Z,6.00
2022-11-13T09:59:09.392Z,7.47
2022-11-13T10:02:42.452Z,6.97
2022-11-13T10:06:14.353Z,7.70
2022-11-13T10:09:46.417Z,6.60
2022-11-13T10:13:17.438Z,9.33
2022-11-13T10:16:47.421Z,7.00
2022-11-13T10:20:22.469Z,7.80
2022-11-13T10:23:55.474Z,6.40
2022-11-13T10:27:29.490Z,5.97
2022-11-13T10:30:51.459Z,7.07
2022-11-13T10:34:25.467Z,6.40
2022-11-13T10:38:11.514Z,9.30
2022-11-13T10:41:42.499Z,6.95
2022-11-13T10:45:18.485Z,7.25
2022-11-13T10:48:50.531Z,6.30
2022-11-13T10:52:21.675Z,5.73
2022-11-13T10:55:52.597Z,5.43
2022-11-13T10:59:26.565Z,9.10
2022-11-13T11:02:59.557Z,5.87
2022-11-13T11:07:04.393Z,4.93
2022-11-13T11:10:06.554Z,4.80
2022-11-13T11:13:37.615Z,5.37
2022-11-13T11:17:07.639Z,8.70
2022-11-13T11:20:42.633Z,5.33
2022-11-13T11:24:17.665Z,4.95
2022-11-13T11:27:51.650Z,4.67
2022-11-13T11:31:23.669Z,4.60
2022-11-13T11:34:58.821Z,5.77
2022-11-13T11:38:29.028Z,4.20
2022-11-13T11:42:00.702Z,5.10
2022-11-13T11:45:34.691Z,4.45
2022-11-13T11:49:05.748Z,5.17
2022-11-13T11:52:38.683Z,4.43
2022-11-13T11:56:13.724Z,4.00
2022-11-13T11:59:55.750Z,3.30
2022-11-13T12:03:32.763Z,3.95
2022-11-13T12:07:05.820Z,4.20
2022-11-13T12:10:38.764Z,4.93
2022-11-13T12:14:11.798Z,5.93
2022-11-13T12:17:51.846Z,5.00
2022-11-13T12:21:23.817Z,6.70
2022-11-13T12:24:59.820Z,3.60
2022-11-13T12:28:31.087Z,4.60
2022-11-13T12:32:08.882Z,3.47
2022-11-13T12:35:39.840Z,3.40
2022-11-13T12:39:09.882Z,3.10
2022-11-13T12:42:42.857Z,5.20
2022-11-13T12:46:17.878Z,3.10
2022-11-13T12:49:56.906Z,2.47
2022-11-13T12:53:26.882Z,4.07
2022-11-13T12:56:56.924Z,2.70
2022-11-13T13:00:33.931Z,2.77
2022-11-13T13:04:08.983Z,2.50
2022-11-13T13:07:42.927Z,3.70
2022-11-13T13:11:17.979Z,3.00
2022-11-13T13:14:53.934Z,2.40
2022-11-13T13:18:33.990Z,3.53
2022-11-13T13:22:04.999Z,2.60
2022-11-13T13:25:49.991Z,2.77
2022-11-13T13:29:21.047Z,2.40
2022-11-13T13:32:56.078Z,2.87
2022-11-13T13:36:28.034Z,3.00
2022-11-13T13:40:02.075Z,3.00
2022-11-13T13:43:44.054Z,2.90
2022-11-13T13:47:15.066Z,3.10
2022-11-13T13:50:46.171Z,3.07
2022-11-13T13:54:17.061Z,4.03
2022-11-13T13:57:51.132Z,2.55
2022-11-13T14:01:24.249Z,3.33
2022-11-13T14:04:58.211Z,2.30
2022-11-13T14:08:18.160Z,4.97
2022-11-13T14:11:43.227Z,3.00
2022-11-13T14:15:05.158Z,3.87
2022-11-13T14:18:38.164Z,2.80
2022-11-13T14:22:11.222Z,2.87
2022-11-13T14:25:43.192Z,2.55
2022-11-13T14:29:20.307Z,3.63
2022-11-13T14:32:51.186Z,3.13
2022-11-13T14:36:24.284Z,2.93
2022-11-13T14:39:55.291Z,3.75
2022-11-13T14:43:25.280Z,3.00
2022-11-13T14:46:59.264Z,5.73
2022-11-13T14:50:36.387Z,3.13
2022-11-13T14:54:09.300Z,3.80
2022-11-13T14:57:29.300Z,3.55
2022-11-13T15:01:00.325Z,5.10
2022-11-13T15:04:34.221Z,4.05
2022-11-13T15:08:02.439Z,5.05
2022-11-13T15:11:35.344Z,5.55
2022-11-13T15:15:06.358Z,5.70
2022-11-13T15:18:37.433Z,2.95
2022-11-13T15:22:28.008Z,4.40
2022-11-13T15:25:43.913Z,4.10
2022-11-13T15:29:17.368Z,5.40
2022-11-13T15:32:36.407Z,4.93
2022-11-13T15:36:07.398Z,4.90
2022-11-13T15:39:29.660Z,5.15
2022-11-13T15:43:03.447Z,8.55
2022-11-13T15:46:38.443Z,7.50
2022-11-13T15:50:12.765Z,4.77
2022-11-13T15:53:27.750Z,4.53
2022-11-13T15:56:46.483Z,4.70
2022-11-13T16:00:20.486Z,4.45
2022-11-13T16:03:53.512Z,5.00
2022-11-13T16:07:12.547Z,4.83
2022-11-13T16:10:43.478Z,6.97
2022-11-13T16:14:05.560Z,8.55
2022-11-13T16:17:36.532Z,4.60
2022-11-13T16:21:11.594Z,7.50
2022-11-13T16:24:30.619Z,7.75
2022-11-13T16:28:04.608Z,5.80
2022-11-13T16:31:34.614Z,5.97
2022-11-13T16:34:53.577Z,4.30
2022-11-13T16:38:29.635Z,5.40
2022-11-13T16:42:03.626Z,5.90
2022-11-13T16:45:25.663Z,5.75
2022-11-13T16:48:47.640Z,11.53
2022-11-13T16:52:06.626Z,8.53
2022-11-13T16:55:39.696Z,8.13
2022-11-13T16:58:57.739Z,9.97
2022-11-13T17:02:28.708Z,7.47
2022-11-13T17:05:59.705Z,9.85
2022-11-13T17:09:30.692Z,7.37
2022-11-13T17:13:03.713Z,7.37
2022-11-13T17:16:36.708Z,6.53
2022-11-13T17:19:56.718Z,8.15
2022-11-13T17:23:14.695Z,7.25
2022-11-13T17:26:36.744Z,6.87
2022-11-13T17:30:09.756Z,8.13
2022-11-13T17:33:40.776Z,10.30
2022-11-13T17:37:02.781Z,7.33
2022-11-13T17:40:34.793Z,12.17
2022-11-13T17:44:08.018Z,7.90
2022-11-13T17:47:42.828Z,8.70
2022-11-13T17:51:19.801Z,7.00
2022-11-13T17:54:39.838Z,8.90
2022-11-13T17:57:58.847Z,7.57
2022-11-13T18:01:29.858Z,9.15
2022-11-13T18:05:05.858Z,9.65
2022-11-13T18:08:36.937Z,9.20
2022-11-13T18:11:56.868Z,10.07
2022-11-13T18:15:27.910Z,9.90
2022-11-13T18:18:58.895Z,9.67
2022-11-13T18:22:30.929Z,9.93
2022-11-13T18:26:04.962Z,13.60
2022-11-13T18:29:34.979Z,10.03
2022-11-13T18:32:54.060Z,9.17
2022-11-13T18:36:12.943Z,9.53
2022-11-13T18:39:45.984Z,9.43
2022-11-13T18:43:05.002Z,10.85
2022-11-13T18:46:35.978Z,9.55
2022-11-13T18:49:54.991Z,8.53
2022-11-13T18:53:14.057Z,10.27
2022-11-13T18:56:46.025Z,10.67
2022-11-13T19:00:08.059Z,13.57
2022-11-13T19:03:29.363Z,10.40
2022-11-13T19:07:00.153Z,11.45
2022-11-13T19:10:22.111Z,12.10
2022-11-13T19:13:55.089Z,11.77
2022-11-13T19:17:17.098Z,11.60
2022-11-13T19:20:47.086Z,9.67
2022-11-13T19:24:18.105Z,12.15
2022-11-13T19:27:36.148Z,10.73
2022-11-13T19:31:10.093Z,12.90
2022-11-13T19:34:29.239Z,14.83
2022-11-13T19:37:48.120Z,14.17
2022-11-13T19:41:06.162Z,14.20
2022-11-13T19:44:31.192Z,12.53
2022-11-13T19:48:06.190Z,14.95
2022-11-13T19:51:37.210Z,16.63
2022-11-13T19:54:56.216Z,17.20
2022-11-13T19:58:15.215Z,14.93
2022-11-13T20:01:46.298Z,16.30
2022-11-13T20:05:18.227Z,22.00
2022-11-13T20:08:36.257Z,19.25
2022-11-13T20:11:55.241Z,20.00
2022-11-13T20:15:15.262Z,17.90
2022-11-13T20:18:46.362Z,15.83
2022-11-13T20:22:21.316Z,15.25
2022-11-13T20:25:51.318Z,17.70
2022-11-13T20:29:10.353Z,15.50
2022-11-13T20:32:29.427Z,16.53
2022-11-13T20:35:48.347Z,22.20
2022-11-13T20:39:24.353Z,18.60
2022-11-13T20:42:43.393Z,19.65
2022-11-13T20:46:14.348Z,18.57
2022-11-13T20:49:33.365Z,17.63
2022-11-13T20:52:54.364Z,16.63
2022-11-13T20:56:26.380Z,17.43
2022-11-13T20:59:45.452Z,18.70
2022-11-13T21:03:04.430Z,18.73
2022-11-13T21:06:34.402Z,17.10
2022-11-13T21:09:53.411Z,17.43
2022-11-13T21:13:29.412Z,21.60
2022-11-13T21:16:48.441Z,18.70
2022-11-13T21:20:09.489Z,16.27
2022-11-13T21:23:28.461Z,18.03
2022-11-13T21:27:02.464Z,19.20
2022-11-13T21:30:35.484Z,19.70
2022-11-13T21:34:07.511Z,22.27
2022-11-13T21:37:38.499Z,17.77
2022-11-13T21:40:56.500Z,18.73
2022-11-13T21:44:26.557Z,18.67
2022-11-13T21:48:01.552Z,20.30
2022-11-13T21:51:32.573Z,16.17
2022-11-13T21:54:51.600Z,23.07
2022-11-13T21:58:09.564Z,18.10
2022-11-13T22:01:43.640Z,23.07
2022-11-13T22:05:16.631Z,20.20
2022-11-13T22:08:37.722Z,20.15
2022-11-13T22:12:08.650Z,24.60
2022-11-13T22:15:27.601Z,21.37
2022-11-13T22:18:48.650Z,21.27
2022-11-13T22:22:19.679Z,20.53
2022-11-13T22:25:38.648Z,18.35
2022-11-13T22:29:16.882Z,23.45
2022-11-13T22:32:35.704Z,25.00
2022-11-13T22:35:54.697Z,26.03
2022-11-13T22:39:27.669Z,22.43
2022-11-13T22:42:46.729Z,22.03
2022-11-13T22:46:05.786Z,22.60
2022-11-13T22:49:36.749Z,21.10
2022-11-13T22:52:55.740Z,20.40
2022-11-13T22:56:27.776Z,21.67
2022-11-13T22:59:46.732Z,24.83
2022-11-13T23:03:05.859Z,21.50
2022-11-13T23:06:36.775Z,21.65
2022-11-13T23:09:55.812Z,23.30
2022-11-13T23:13:27.846Z,26.23
2022-11-13T23:16:58.945Z,23.03
2022-11-13T23:20:17.780Z,21.27
2022-11-13T23:23:35.882Z,23.10
2022-11-13T23:26:54.890Z,29.27
2022-11-13T23:30:30.881Z,25.03
2022-11-13T23:34:01.882Z,24.17
2022-11-13T23:37:20.902Z,21.37
2022-11-13T23:40:50.912Z,23.90
2022-11-13T23:44:10.031Z,22.70
2022-11-13T23:47:43.981Z,26.67
2022-11-13T23:51:14.969Z,25.85
2022-11-13T23:54:34.023Z,22.23
2022-11-13T23:57:53.086Z,25.27
